createdAt,value
2023-05-16T00:00:34.994Z,47.38
2023-05-16T00:03:03.978Z,60.28
2023-05-16T00:05:32.551Z,55.25
2023-05-16T00:08:01.194Z,51.17
2023-05-16T00:10:29.762Z,49.97
2023-05-16T00:12:58.651Z,50.85
2023-05-16T00:15:29.616Z,53.63
2023-05-16T00:17:59.429Z,52.42
2023-05-16T00:20:29.024Z,52.28
2023-05-16T00:23:01.049Z,60.20
2023-05-16T00:25:29.747Z,52.97
2023-05-16T00:27:58.329Z,49.22
2023-05-16T00:30:28.281Z,55.42
2023-05-16T00:32:57.210Z,50.63
2023-05-16T00:35:25.851Z,47.95
2023-05-16T00:37:54.445Z,51.17
2023-05-16T00:40:23.263Z,57.85
2023-05-16T00:42:51.461Z,54.00
2023-05-16T00:45:20.104Z,49.55
2023-05-16T00:47:49.917Z,45.33
2023-05-16T00:50:18.821Z,48.78
2023-05-16T00:52:47.474Z,58.20
2023-05-16T00:55:16.188Z,53.45
2023-05-16T00:57:44.507Z,47.67
2023-05-16T01:00:15.381Z,47.13
2023-05-16T01:02:44.430Z,46.15
2023-05-16T01:05:14.330Z,50.17
2023-05-16T01:07:42.955Z,50.83
2023-05-16T01:10:12.115Z,47.45
2023-05-16T01:13:02.461Z,48.45
2023-05-16T01:15:39.879Z,48.53
2023-05-16T01:18:21.257Z,46.15
2023-05-16T01:20:57.900Z,48.42
2023-05-16T01:23:42.964Z,47.08
2023-05-16T01:26:19.607Z,45.42
2023-05-16T01:28:48.961Z,40.67
2023-05-16T01:31:18.238Z,39.92
2023-05-16T01:33:46.796Z,37.58
2023-05-16T01:36:26.980Z,33.13
2023-05-16T01:39:08.876Z,39.20
2023-05-16T01:41:53.158Z,38.00
2023-05-16T01:44:30.549Z,37.40
2023-05-16T01:47:03.690Z,38.60
2023-05-16T01:49:40.793Z,33.03
2023-05-16T01:52:16.153Z,32.80
2023-05-16T01:54:47.957Z,38.30
2023-05-16T01:57:18.389Z,35.22
2023-05-16T01:59:48.092Z,35.20
2023-05-16T02:02:19.728Z,27.92
2023-05-16T02:04:48.421Z,30.10
2023-05-16T02:07:17.247Z,32.05
2023-05-16T02:09:47.260Z,29.83
2023-05-16T02:12:17.299Z,32.55
2023-05-16T02:14:45.897Z,23.92
2023-05-16T02:17:14.636Z,24.45
2023-05-16T02:19:44.812Z,32.92
2023-05-16T02:22:13.509Z,29.10
2023-05-16T02:24:42.039Z,29.70
2023-05-16T02:27:10.520Z,28.77
2023-05-16T02:29:40.052Z,26.90
2023-05-16T02:32:09.234Z,29.40
2023-05-16T02:34:37.770Z,27.83
2023-05-16T02:37:06.832Z,30.65
2023-05-16T02:39:35.408Z,31.58
2023-05-16T02:42:04.035Z,21.77
2023-05-16T02:44:32.544Z,27.23
2023-05-16T02:47:02.220Z,28.38
2023-05-16T02:49:30.481Z,28.70
2023-05-16T02:51:59.001Z,27.75
2023-05-16T02:54:27.250Z,25.67
2023-05-16T02:56:55.735Z,30.85
2023-05-16T02:59:24.278Z,26.70
2023-05-16T03:01:52.824Z,34.28
2023-05-16T03:04:22.851Z,26.10
2023-05-16T03:06:51.465Z,25.65
2023-05-16T03:09:20.141Z,30.58
2023-05-16T03:11:48.649Z,29.27
2023-05-16T03:14:17.138Z,27.15
2023-05-16T03:16:48.273Z,29.75
2023-05-16T03:19:16.979Z,33.38
2023-05-16T03:21:46.580Z,25.05
2023-05-16T03:24:15.299Z,29.52
2023-05-16T03:26:45.695Z,35.85
2023-05-16T03:29:14.302Z,32.85
2023-05-16T03:31:42.938Z,31.63
2023-05-16T03:34:11.250Z,27.30
2023-05-16T03:36:42.101Z,26.23
2023-05-16T03:39:11.785Z,30.90
2023-05-16T03:41:40.402Z,36.15
2023-05-16T03:44:09.030Z,33.58
2023-05-16T03:46:37.624Z,28.15
2023-05-16T03:49:07.388Z,34.63
2023-05-16T03:51:36.069Z,28.90
2023-05-16T03:54:04.718Z,32.90
2023-05-16T03:56:34.458Z,26.38
2023-05-16T03:59:03.003Z,25.27
2023-05-16T04:01:31.512Z,30.00
2023-05-16T04:04:00.156Z,30.92
2023-05-16T04:06:28.459Z,26.90
2023-05-16T04:08:56.948Z,35.70
2023-05-16T04:11:26.524Z,30.35
2023-05-16T04:13:57.062Z,29.30
2023-05-16T04:16:25.611Z,30.08
2023-05-16T04:18:54.227Z,32.97
2023-05-16T04:21:22.836Z,30.75
2023-05-16T04:23:51.317Z,32.25
2023-05-16T04:26:21.901Z,28.90
2023-05-16T04:28:50.185Z,50.50
2023-05-16T04:31:19.765Z,30.67
2023-05-16T04:33:48.306Z,29.75
2023-05-16T04:36:17.033Z,32.42
2023-05-16T04:38:47.122Z,31.05
2023-05-16T04:41:16.570Z,29.67
2023-05-16T04:43:45.627Z,27.02
2023-05-16T04:46:15.465Z,24.05
2023-05-16T04:48:46.157Z,23.95
2023-05-16T04:51:14.877Z,20.38
2023-05-16T04:53:43.385Z,24.10
2023-05-16T04:56:11.976Z,20.77
2023-05-16T04:58:42.691Z,18.80
2023-05-16T05:01:11.644Z,18.85
2023-05-16T05:03:40.146Z,14.68
2023-05-16T05:06:09.779Z,15.60
2023-05-16T05:08:38.568Z,10.93
2023-05-16T05:11:07.147Z,16.05
2023-05-16T05:13:35.692Z,14.18
2023-05-16T05:16:04.850Z,10.25
2023-05-16T05:18:33.506Z,12.20
2023-05-16T05:21:02.748Z,15.40
2023-05-16T05:23:32.976Z,8.15
2023-05-16T05:26:02.155Z,7.80
2023-05-16T05:28:30.690Z,7.28
2023-05-16T05:30:59.548Z,11.27
2023-05-16T05:33:29.353Z,5.60
2023-05-16T05:35:57.941Z,8.63
2023-05-16T05:38:26.486Z,5.80
2023-05-16T05:40:56.883Z,2.70
2023-05-16T05:43:25.518Z,4.13
2023-05-16T05:45:54.464Z,4.15
2023-05-16T05:48:23.214Z,2.20
2023-05-16T05:50:53.073Z,4.15
2023-05-16T05:53:21.666Z,1.95
2023-05-16T05:55:49.887Z,1.67
2023-05-16T05:58:19.486Z,2.58
2023-05-16T06:00:48.075Z,3.47
2023-05-16T06:03:16.700Z,2.65
2023-05-16T06:05:45.221Z,3.92
2023-05-16T06:08:13.809Z,2.05
2023-05-16T06:10:42.017Z,1.10
2023-05-16T06:13:10.529Z,0.95
2023-05-16T06:15:40.277Z,0.90
2023-05-16T06:18:08.606Z,3.50
2023-05-16T06:20:37.206Z,2.30
2023-05-16T06:23:05.729Z,0.68
2023-05-16T06:25:34.308Z,0.73
2023-05-16T06:28:02.808Z,2.33
2023-05-16T06:30:31.009Z,5.47
2023-05-16T06:33:00.597Z,0.88
2023-05-16T06:35:29.405Z,0.95
2023-05-16T06:37:58.077Z,0.68
2023-05-16T06:40:26.613Z,0.80
2023-05-16T06:42:55.171Z,5.63
2023-05-16T06:45:23.747Z,0.90
2023-05-16T06:47:53.620Z,0.55
2023-05-16T06:50:24.483Z,8.13
2023-05-16T06:52:53.152Z,0.90
2023-05-16T06:55:21.974Z,0.60
2023-05-16T06:57:50.258Z,1.10
2023-05-16T07:00:20.039Z,6.53
2023-05-16T07:02:48.491Z,0.38
2023-05-16T07:05:17.211Z,0.47
2023-05-16T07:07:47.307Z,0.50
2023-05-16T07:10:15.982Z,0.70
2023-05-16T07:12:44.728Z,1.85
2023-05-16T07:15:13.264Z,0.80
2023-05-16T07:17:41.822Z,5.05
2023-05-16T07:20:13.634Z,0.60
2023-05-16T07:22:42.289Z,1.10
2023-05-16T07:25:12.869Z,0.45
2023-05-16T07:27:44.564Z,0.50
2023-05-16T07:30:15.431Z,0.80
2023-05-16T07:32:44.473Z,0.57
2023-05-16T07:35:13.262Z,2.13
2023-05-16T07:37:43.474Z,0.60
2023-05-16T07:40:14.617Z,1.38
2023-05-16T07:42:43.191Z,5.78
2023-05-16T07:45:12.022Z,0.63
2023-05-16T07:47:40.568Z,3.90
2023-05-16T07:50:10.028Z,0.40
2023-05-16T07:52:38.776Z,0.47
2023-05-16T07:55:08.794Z,0.40
2023-05-16T07:57:38.650Z,0.50
2023-05-16T08:00:09.513Z,0.73
2023-05-16T08:02:41.052Z,14.35
2023-05-16T08:05:11.017Z,1.00
2023-05-16T08:07:39.688Z,0.90
2023-05-16T08:10:10.654Z,0.50
2023-05-16T08:12:42.898Z,0.40
2023-05-16T08:15:12.199Z,8.45
2023-05-16T08:17:40.995Z,0.40
2023-05-16T08:20:10.438Z,0.40
2023-05-16T08:22:38.983Z,0.28
2023-05-16T08:25:09.064Z,0.40
2023-05-16T08:27:38.596Z,0.30
2023-05-16T08:30:11.334Z,1.00
2023-05-16T08:32:40.021Z,0.40
2023-05-16T08:35:10.988Z,0.30
2023-05-16T08:37:39.761Z,1.83
2023-05-16T08:40:11.475Z,0.98
2023-05-16T08:42:40.849Z,0.30
2023-05-16T08:45:12.925Z,2.80
2023-05-16T08:47:43.605Z,0.30
2023-05-16T08:50:13.108Z,1.17
2023-05-16T08:52:43.025Z,0.25
2023-05-16T08:55:12.645Z,0.30
2023-05-16T08:57:41.892Z,0.75
2023-05-16T09:00:13.555Z,0.30
2023-05-16T09:02:42.919Z,0.52
2023-05-16T09:05:14.510Z,0.47
2023-05-16T09:07:43.975Z,0.10
2023-05-16T09:10:13.781Z,7.07
2023-05-16T09:12:43.724Z,0.20
2023-05-16T09:15:13.771Z,0.17
2023-05-16T09:17:46.456Z,0.20
2023-05-16T09:20:17.530Z,0.10
2023-05-16T09:22:53.753Z,0.40
2023-05-16T09:27:55.836Z,0.28
2023-05-16T09:30:30.470Z,0.28
2023-05-16T09:32:59.714Z,0.20
2023-05-16T09:35:43.116Z,0.38
2023-05-16T09:38:16.445Z,0.57
2023-05-16T09:40:46.505Z,0.60
2023-05-16T09:43:20.468Z,2.15
2023-05-16T09:45:50.767Z,0.10
2023-05-16T09:48:19.736Z,0.20
2023-05-16T09:50:52.276Z,0.63
2023-05-16T09:53:27.861Z,0.50
2023-05-16T09:56:04.228Z,0.85
2023-05-16T09:58:34.943Z,1.38
2023-05-16T10:01:05.331Z,0.52
2023-05-16T10:03:37.213Z,0.10
2023-05-16T10:06:07.077Z,2.92
2023-05-16T10:08:37.262Z,0.63
2023-05-16T10:11:07.282Z,0.30
2023-05-16T10:13:37.713Z,0.68
2023-05-16T10:16:12.866Z,2.03
2023-05-16T10:18:42.846Z,0.30
2023-05-16T10:21:16.284Z,0.30
2023-05-16T10:23:51.317Z,0.60
2023-05-16T10:26:21.896Z,3.13
2023-05-16T10:28:51.671Z,0.22
2023-05-16T10:31:22.027Z,2.20
2023-05-16T10:33:50.892Z,3.03
2023-05-16T10:36:20.042Z,0.30
2023-05-16T10:38:49.633Z,3.75
2023-05-16T10:41:18.634Z,1.40
2023-05-16T10:43:57.432Z,4.43
2023-05-16T10:46:32.241Z,2.00
2023-05-16T10:49:01.001Z,1.48
2023-05-16T10:51:38.715Z,1.48
2023-05-16T10:54:13.790Z,2.70
2023-05-16T10:59:26.145Z,5.35
2023-05-16T11:01:57.583Z,1.17
2023-05-16T11:04:44.849Z,0.55
2023-05-16T11:07:17.351Z,6.50
2023-05-16T11:09:46.514Z,4.57
2023-05-16T11:12:15.684Z,4.28
2023-05-16T11:14:45.179Z,4.72
2023-05-16T11:17:17.171Z,5.72
2023-05-16T11:19:48.209Z,4.07
2023-05-16T11:22:27.778Z,9.52
2023-05-16T11:25:02.481Z,2.25
2023-05-16T11:27:35.909Z,7.35
2023-05-16T11:30:15.482Z,4.65
2023-05-16T11:32:50.726Z,2.97
2023-05-16T11:35:21.346Z,4.50
2023-05-16T11:37:50.617Z,6.95
2023-05-16T11:40:19.414Z,2.90
2023-05-16T11:42:49.195Z,6.15
2023-05-16T11:45:19.744Z,5.07
2023-05-16T11:47:50.677Z,11.02
2023-05-16T11:50:20.850Z,5.90
2023-05-16T11:52:53.451Z,9.02
2023-05-16T11:55:39.478Z,7.32
2023-05-16T11:58:09.734Z,4.82
2023-05-16T12:00:38.148Z,7.47
2023-05-16T12:03:08.300Z,7.47
2023-05-16T12:05:37.092Z,8.23
2023-05-16T12:08:06.824Z,6.75
2023-05-16T12:10:35.306Z,16.88
2023-05-16T12:13:04.866Z,5.10
2023-05-16T12:15:34.388Z,6.57
2023-05-16T12:18:03.349Z,7.53
2023-05-16T12:20:33.436Z,11.80
2023-05-16T12:23:02.024Z,4.28
2023-05-16T12:25:32.833Z,8.73
2023-05-16T12:28:03.199Z,10.25
2023-05-16T12:30:33.587Z,13.77
2023-05-16T12:33:07.607Z,4.95
2023-05-16T12:35:41.623Z,15.60
2023-05-16T12:38:11.725Z,9.02
2023-05-16T12:40:41.913Z,3.75
2023-05-16T12:43:15.957Z,3.45
2023-05-16T12:45:50.940Z,3.95
2023-05-16T12:48:20.016Z,7.13
2023-05-16T12:50:53.434Z,5.13
2023-05-16T12:53:22.127Z,3.60
2023-05-16T12:55:50.728Z,10.90
2023-05-16T12:58:19.811Z,6.18
2023-05-16T13:00:48.620Z,4.88
2023-05-16T13:03:17.802Z,5.97
2023-05-16T13:05:46.620Z,8.05
2023-05-16T13:08:16.409Z,6.05
2023-05-16T13:10:44.721Z,7.32
2023-05-16T13:13:21.985Z,4.57
2023-05-16T13:15:57.687Z,6.20
2023-05-16T13:18:26.803Z,8.65
2023-05-16T13:20:55.128Z,4.53
2023-05-16T13:23:27.474Z,4.68
2023-05-16T13:25:59.257Z,7.68
2023-05-16T13:28:28.279Z,6.28
2023-05-16T13:31:00.844Z,2.65
2023-05-16T13:33:29.789Z,4.63
2023-05-16T13:35:58.068Z,7.93
2023-05-16T13:38:27.787Z,8.00
2023-05-16T13:40:56.148Z,5.38
2023-05-16T13:43:24.532Z,4.50
2023-05-16T13:45:53.448Z,2.50
2023-05-16T13:48:22.013Z,6.20
2023-05-16T13:50:50.547Z,3.35
2023-05-16T13:53:19.110Z,3.53
2023-05-16T13:55:48.960Z,4.18
2023-05-16T13:58:17.450Z,1.98
2023-05-16T14:00:46.317Z,4.45
2023-05-16T14:03:15.539Z,11.23
2023-05-16T14:05:44.301Z,1.80
2023-05-16T14:08:12.896Z,4.55
2023-05-16T14:10:41.534Z,4.55
2023-05-16T14:13:11.484Z,4.30
2023-05-16T14:15:39.752Z,4.50
2023-05-16T14:18:08.226Z,8.13
2023-05-16T14:20:36.509Z,6.80
2023-05-16T14:23:07.188Z,5.30
2023-05-16T14:25:36.229Z,5.95
2023-05-16T14:28:04.986Z,2.33
2023-05-16T14:30:35.126Z,1.80
2023-05-16T14:33:03.732Z,3.90
2023-05-16T14:35:32.383Z,6.68
2023-05-16T14:38:00.947Z,5.00
2023-05-16T14:40:29.595Z,1.67
2023-05-16T14:42:58.144Z,3.50
2023-05-16T14:45:26.989Z,7.22
2023-05-16T14:47:56.902Z,6.65
2023-05-16T14:50:25.918Z,3.67
2023-05-16T14:52:54.558Z,9.68
2023-05-16T14:55:22.964Z,2.53
2023-05-16T14:57:58.931Z,5.03
2023-05-16T15:00:28.501Z,7.45
2023-05-16T15:02:58.467Z,3.03
2023-05-16T15:05:26.938Z,1.40
2023-05-16T15:07:55.706Z,8.45
2023-05-16T15:10:24.481Z,2.47
2023-05-16T15:12:53.545Z,7.30
2023-05-16T15:15:22.438Z,9.90
2023-05-16T15:17:51.082Z,1.85
2023-05-16T15:20:22.662Z,3.40
2023-05-16T15:22:51.521Z,3.20
2023-05-16T15:25:20.707Z,2.92
2023-05-16T15:27:49.393Z,2.08
2023-05-16T15:30:17.677Z,5.15
2023-05-16T15:32:46.318Z,4.03
2023-05-16T15:35:14.892Z,2.28
2023-05-16T15:37:44.700Z,3.90
2023-05-16T15:40:14.555Z,7.38
2023-05-16T15:42:44.274Z,9.00
2023-05-16T15:45:13.365Z,3.30
2023-05-16T15:47:42.743Z,4.63
2023-05-16T15:50:12.497Z,9.52
2023-05-16T15:52:41.260Z,1.70
2023-05-16T15:55:12.559Z,4.90
2023-05-16T15:57:42.146Z,3.95
2023-05-16T16:00:12.292Z,7.47
2023-05-16T16:02:42.385Z,6.10
2023-05-16T16:05:11.191Z,2.20
2023-05-16T16:07:40.111Z,2.72
2023-05-16T16:10:11.411Z,5.55
2023-05-16T16:12:40.115Z,4.93
2023-05-16T16:15:11.060Z,5.47
2023-05-16T16:17:39.754Z,12.20
2023-05-16T16:20:09.231Z,2.42
2023-05-16T16:22:37.753Z,2.45
2023-05-16T16:25:07.695Z,5.22
2023-05-16T16:27:37.399Z,11.48
2023-05-16T16:30:07.247Z,2.20
2023-05-16T16:32:35.941Z,1.63
2023-05-16T16:35:05.610Z,4.57
2023-05-16T16:37:34.338Z,3.53
2023-05-16T16:40:04.855Z,6.18
2023-05-16T16:42:33.865Z,3.90
2023-05-16T16:45:03.508Z,2.63
2023-05-16T16:47:32.686Z,2.65
2023-05-16T16:50:01.735Z,4.60
2023-05-16T16:52:30.133Z,1.83
2023-05-16T16:54:58.734Z,4.90
2023-05-16T16:57:27.245Z,4.60
2023-05-16T16:59:55.828Z,2.17
2023-05-16T17:02:25.602Z,4.53
2023-05-16T17:04:54.186Z,2.90
2023-05-16T17:07:22.734Z,2.83
2023-05-16T17:09:51.329Z,1.73
2023-05-16T17:12:20.337Z,3.83
2023-05-16T17:14:49.830Z,1.70
2023-05-16T17:17:18.894Z,5.38
2023-05-16T17:19:48.482Z,3.15
2023-05-16T17:22:16.891Z,2.30
2023-05-16T17:24:45.593Z,1.88
2023-05-16T17:27:14.314Z,2.58
2023-05-16T17:29:42.902Z,1.90
2023-05-16T17:32:11.446Z,2.22
2023-05-16T17:34:39.987Z,4.20
2023-05-16T17:37:10.466Z,4.38
2023-05-16T17:39:39.450Z,2.45
2023-05-16T17:42:09.222Z,1.67
2023-05-16T17:44:37.878Z,3.47
2023-05-16T17:47:06.556Z,4.63
2023-05-16T17:49:35.395Z,10.23
2023-05-16T17:52:03.773Z,3.70
2023-05-16T17:54:33.478Z,1.20
2023-05-16T17:57:02.056Z,3.25
2023-05-16T17:59:30.561Z,2.38
2023-05-16T18:01:59.298Z,2.97
2023-05-16T18:04:27.965Z,4.70
2023-05-16T18:06:56.497Z,1.40
2023-05-16T18:09:25.401Z,1.38
2023-05-16T18:11:55.033Z,2.13
2023-05-16T18:14:23.705Z,2.17
2023-05-16T18:16:52.306Z,18.95
2023-05-16T18:19:21.074Z,6.50
2023-05-16T18:21:49.838Z,3.25
2023-05-16T18:24:18.300Z,1.02
2023-05-16T18:26:48.468Z,1.83
2023-05-16T18:29:18.203Z,3.55
2023-05-16T18:31:46.564Z,6.50
2023-05-16T18:34:15.060Z,3.17
2023-05-16T18:36:43.832Z,1.77
2023-05-16T18:39:12.742Z,0.93
2023-05-16T18:41:46.574Z,1.02
2023-05-16T18:44:17.135Z,2.50
2023-05-16T18:46:47.877Z,3.53
2023-05-16T18:49:16.472Z,7.78
2023-05-16T18:51:45.356Z,4.35
2023-05-16T18:54:13.936Z,2.15
2023-05-16T18:56:42.972Z,1.40
2023-05-16T18:59:11.575Z,7.65
2023-05-16T19:01:40.002Z,2.47
2023-05-16T19:04:09.896Z,7.32
2023-05-16T19:06:38.885Z,2.92
2023-05-16T19:09:07.729Z,2.05
2023-05-16T19:11:37.197Z,0.75
2023-05-16T19:14:05.740Z,8.50
2023-05-16T19:16:34.294Z,2.10
2023-05-16T19:19:04.233Z,2.55
2023-05-16T19:21:34.069Z,3.42
2023-05-16T19:24:03.138Z,1.92
2023-05-16T19:26:31.932Z,4.88
2023-05-16T19:29:00.305Z,1.75
2023-05-16T19:31:28.658Z,6.07
2023-05-16T19:33:57.288Z,10.02
2023-05-16T19:36:25.889Z,5.22
2023-05-16T19:38:55.492Z,3.65
2023-05-16T19:41:24.640Z,2.03
2023-05-16T19:43:53.269Z,4.07
2023-05-16T19:46:21.544Z,1.45
2023-05-16T19:48:50.324Z,2.70
2023-05-16T19:51:26.661Z,2.30
2023-05-16T19:54:07.309Z,3.60
2023-05-16T19:56:35.907Z,1.45
2023-05-16T19:59:04.453Z,2.22
2023-05-16T20:01:33.021Z,2.00
2023-05-16T20:04:02.467Z,3.80
2023-05-16T20:06:31.618Z,3.15
2023-05-16T20:09:00.170Z,2.30
2023-05-16T20:11:29.798Z,1.55
2023-05-16T20:14:00.031Z,4.32
2023-05-16T20:16:28.912Z,3.70
2023-05-16T20:18:58.136Z,3.75
2023-05-16T20:21:26.806Z,1.92
2023-05-16T20:23:55.411Z,3.83
2023-05-16T20:26:24.039Z,8.20
2023-05-16T20:28:53.656Z,10.60
2023-05-16T20:31:22.293Z,2.10
2023-05-16T20:33:50.942Z,2.13
2023-05-16T20:36:19.926Z,8.27
2023-05-16T20:38:48.673Z,6.22
2023-05-16T20:41:17.772Z,4.10
2023-05-16T20:43:46.797Z,2.83
2023-05-16T20:46:16.857Z,1.95
2023-05-16T20:48:45.664Z,13.38
2023-05-16T20:51:14.313Z,3.15
2023-05-16T20:53:43.109Z,2.92
2023-05-16T20:56:11.687Z,5.07
2023-05-16T20:58:42.157Z,7.32
2023-05-16T21:01:10.867Z,4.57
2023-05-16T21:03:40.859Z,8.23
2023-05-16T21:06:09.526Z,1.85
2023-05-16T21:08:37.955Z,1.90
2023-05-16T21:11:06.560Z,3.15
2023-05-16T21:13:35.118Z,3.58
2023-05-16T21:16:04.004Z,3.03
2023-05-16T21:18:32.649Z,4.00
2023-05-16T21:21:02.458Z,2.85
2023-05-16T21:23:30.703Z,6.30
2023-05-16T21:25:59.245Z,1.83
2023-05-16T21:28:28.250Z,2.95
2023-05-16T21:30:56.907Z,5.55
2023-05-16T21:33:25.660Z,2.55
2023-05-16T21:35:55.140Z,12.43
2023-05-16T21:38:24.801Z,3.22
2023-05-16T21:40:53.870Z,7.45
2023-05-16T21:43:22.381Z,2.67
2023-05-16T21:45:51.022Z,2.72
2023-05-16T21:48:19.824Z,6.35
2023-05-16T21:50:48.457Z,3.25
2023-05-16T21:53:17.619Z,5.88
2023-05-16T21:55:47.271Z,2.38
2023-05-16T21:58:15.524Z,2.00
2023-05-16T22:00:44.130Z,2.08
2023-05-16T22:03:12.937Z,4.05
2023-05-16T22:05:41.555Z,3.53
2023-05-16T22:08:10.150Z,5.18
2023-05-16T22:10:38.423Z,2.70
2023-05-16T22:13:08.879Z,1.08
2023-05-16T22:15:37.485Z,0.70
2023-05-16T22:18:06.280Z,4.93
2023-05-16T22:20:34.880Z,11.00
2023-05-16T22:23:03.633Z,1.38
2023-05-16T22:25:32.175Z,10.55
2023-05-16T22:28:00.725Z,2.45
2023-05-16T22:30:30.636Z,2.88
2023-05-16T22:32:59.236Z,6.85
2023-05-16T22:35:31.617Z,2.97
2023-05-16T22:38:00.319Z,4.80
2023-05-16T22:40:28.938Z,8.43
2023-05-16T22:42:57.564Z,6.45
2023-05-16T22:45:29.336Z,4.88
2023-05-16T22:47:59.485Z,4.97
2023-05-16T22:50:28.229Z,4.75
2023-05-16T22:52:56.777Z,5.10
2023-05-16T22:55:25.639Z,3.30
2023-05-16T22:57:57.007Z,2.05
2023-05-16T23:00:25.775Z,3.55
2023-05-16T23:02:54.895Z,4.25
2023-05-16T23:05:25.014Z,1.77
2023-05-16T23:07:53.539Z,2.50
2023-05-16T23:10:22.135Z,2.42
2023-05-16T23:12:50.738Z,0.98
2023-05-16T23:15:19.322Z,3.15
2023-05-16T23:17:47.667Z,1.98
2023-05-16T23:20:16.337Z,3.97
2023-05-16T23:22:45.983Z,6.68
2023-05-16T23:25:14.644Z,3.20
2023-05-16T23:27:43.258Z,0.95
2023-05-16T23:30:12.928Z,3.22
2023-05-16T23:32:41.618Z,1.67
2023-05-16T23:35:10.584Z,1.67
2023-05-16T23:37:39.209Z,2.42
2023-05-16T23:40:10.737Z,5.93
2023-05-16T23:42:40.798Z,4.65
2023-05-16T23:45:10.266Z,8.98
2023-05-16T23:47:38.908Z,3.50
2023-05-16T23:50:08.536Z,7.85
2023-05-16T23:52:37.094Z,3.55
2023-05-16T23:55:06.237Z,7.43
2023-05-16T23:57:36.209Z,2.80
